Time;durP1;ratioP1;P1;durP2;ratioP2;P2;SDS_P1;SDS_P2;PMS_P1;PMS_P2;Temp;Humidity;BMP_temperature;BMP_pressure;BME280_temperature;BME280_humidity;BME280_pressure;Samples;Min_cycle;Max_cycle;Signal;HPM_P1;HPM_P2
2023/03/10 00:01:14;;;;;;;;;;;12.10;76.60;;;;;;5003793;28;88674;-40
2023/03/10 00:03:39;;;;;;;;;;;12.10;77.30;;;;;;5017196;28;88549;-39
2023/03/10 00:06:05;;;;;;;;;;;12.10;76.70;;;;;;5019576;28;87175;-40
2023/03/10 00:08:31;;;;;;;;;;;12.10;76.60;;;;;;5017113;28;88167;-39
2023/03/10 00:10:56;;;;;;;;;;;12.10;76.60;;;;;;5015930;28;89274;-39
2023/03/10 00:13:22;;;;;;;;;;;12.10;76.60;;;;;;5018994;28;87788;-39
2023/03/10 00:15:47;;;;;;;;;;;12.10;76.60;;;;;;5008569;28;89483;-40
2023/03/10 00:18:13;;;;;;;;;;;12.00;76.40;;;;;;5014555;28;88331;-40
2023/03/10 00:20:38;;;;;;;;;;;12.10;76.60;;;;;;5003191;28;89420;-39
2023/03/10 00:23:04;;;;;;;;;;;12.00;76.60;;;;;;5016902;28;89661;-40
2023/03/10 00:25:29;;;;;;;;;;;12.10;76.50;;;;;;5003315;28;87132;-40
2023/03/10 00:27:55;;;;;;;;;;;12.00;76.40;;;;;;5002770;28;89295;-39
2023/03/10 00:30:20;;;;;;;;;;;12.00;76.50;;;;;;5014198;28;89648;-39
2023/03/10 00:32:46;;;;;;;;;;;12.00;76.50;;;;;;5019618;28;87998;-39
2023/03/10 00:35:11;;;;;;;;;;;12.00;76.40;;;;;;5003786;28;87423;-39
2023/03/10 00:37:37;;;;;;;;;;;12.00;76.50;;;;;;5006268;28;88019;-39
2023/03/10 00:40:09;;;;;;;;;;;12.00;76.40;;;;;;5003303;28;88936;-39
2023/03/10 00:42:34;;;;;;;;;;;12.10;76.40;;;;;;5017246;28;90379;-39
2023/03/10 00:45:00;;;;;;;;;;;12.10;76.40;;;;;;5010855;28;87123;-39
2023/03/10 00:47:25;;;;;;;;;;;12.10;76.40;;;;;;5020916;28;89032;-39
2023/03/10 00:49:51;;;;;;;;;;;12.00;76.40;;;;;;5019015;28;88183;-39
2023/03/10 00:52:16;;;;;;;;;;;12.00;76.40;;;;;;5013300;28;87296;-39
2023/03/10 00:54:42;;;;;;;;;;;12.00;77.00;;;;;;5002797;28;88758;-39
2023/03/10 00:57:07;;;;;;;;;;;12.00;76.40;;;;;;5008880;28;88048;-39
2023/03/10 00:59:33;;;;;;;;;;;12.10;76.40;;;;;;5021238;28;86429;-40
2023/03/10 01:01:59;;;;;;;;;;;12.00;76.30;;;;;;5005036;28;90302;-39
2023/03/10 01:04:24;;;;;;;;;;;12.00;76.40;;;;;;5006596;28;87126;-40
2023/03/10 01:06:50;;;;;;;;;;;12.00;76.30;;;;;;5017392;28;88803;-39
2023/03/10 01:09:16;;;;;;;;;;;12.00;76.30;;;;;;5016275;28;89408;-40
2023/03/10 01:11:42;;;;;;;;;;;12.00;76.30;;;;;;5019949;28;87096;-39
2023/03/10 01:14:09;;;;;;;;;;;11.90;76.30;;;;;;5002619;28;88762;-40
2023/03/10 01:16:35;;;;;;;;;;;11.90;76.30;;;;;;5002186;28;88701;-39
2023/03/10 01:19:00;;;;;;;;;;;11.90;76.30;;;;;;5002177;28;87194;-39
2023/03/10 01:21:27;;;;;;;;;;;12.00;76.40;;;;;;5004839;28;89174;-39
2023/03/10 01:23:53;;;;;;;;;;;11.90;76.40;;;;;;5014235;28;87032;-39
2023/03/10 01:26:18;;;;;;;;;;;11.90;76.30;;;;;;5017311;28;88808;-39
2023/03/10 01:28:44;;;;;;;;;;;11.90;76.40;;;;;;5024553;28;87780;-39
2023/03/10 01:31:10;;;;;;;;;;;11.90;76.40;;;;;;5016728;28;88122;-39
2023/03/10 01:33:38;;;;;;;;;;;11.90;76.30;;;;;;5017821;28;89901;-39
2023/03/10 01:36:24;;;;;;;;;;;11.90;76.40;;;;;;5019449;28;88357;-40
2023/03/10 01:38:51;;;;;;;;;;;11.90;76.40;;;;;;5022971;28;87198;-39
2023/03/10 01:41:17;;;;;;;;;;;11.90;76.40;;;;;;5022474;28;88919;-39
2023/03/10 01:43:50;;;;;;;;;;;11.90;76.40;;;;;;5019645;28;87505;-39
2023/03/10 01:46:34;;;;;;;;;;;11.90;76.40;;;;;;5021116;28;88036;-39
2023/03/10 01:49:03;;;;;;;;;;;11.80;76.40;;;;;;5005488;28;89187;-39
2023/03/10 01:51:31;;;;;;;;;;;11.80;76.40;;;;;;5005657;28;87224;-39
2023/03/10 01:53:57;;;;;;;;;;;11.80;76.40;;;;;;5006885;28;88690;-39
2023/03/10 01:56:22;;;;;;;;;;;11.80;76.40;;;;;;5004338;28;89838;-39
2023/03/10 01:58:48;;;;;;;;;;;11.80;76.40;;;;;;5022334;28;87129;-39
2023/03/10 02:01:15;;;;;;;;;;;11.80;76.40;;;;;;5021792;28;88668;-39
2023/03/10 02:03:44;;;;;;;;;;;11.80;76.40;;;;;;5008101;28;89170;-39
2023/03/10 02:06:11;;;;;;;;;;;11.80;76.40;;;;;;5005585;28;88996;-39
2023/03/10 02:08:41;;;;;;;;;;;11.80;76.40;;;;;;5004903;28;89185;-39
2023/03/10 02:11:06;;;;;;;;;;;11.80;76.40;;;;;;5005260;28;87118;-39
2023/03/10 02:13:32;;;;;;;;;;;11.80;76.40;;;;;;5005729;28;88796;-39
2023/03/10 02:15:57;;;;;;;;;;;11.80;76.40;;;;;;5020427;28;89273;-39
2023/03/10 02:18:24;;;;;;;;;;;11.70;76.40;;;;;;5005060;28;87260;-40
2023/03/10 02:21:03;;;;;;;;;;;11.70;76.40;;;;;;5017349;28;89203;-39
2023/03/10 02:23:51;;;;;;;;;;;11.70;76.40;;;;;;5004856;28;90102;-39
2023/03/10 02:26:16;;;;;;;;;;;11.70;76.40;;;;;;5018977;28;87139;-39
2023/03/10 02:28:42;;;;;;;;;;;11.70;76.40;;;;;;5007023;28;89630;-40
2023/03/10 02:31:08;;;;;;;;;;;11.70;76.40;;;;;;5005000;28;87664;-39
2023/03/10 02:33:34;;;;;;;;;;;11.70;76.40;;;;;;5008490;28;88048;-39
2023/03/10 02:36:04;;;;;;;;;;;11.60;76.20;;;;;;5004857;28;89437;-39
2023/03/10 02:38:30;;;;;;;;;;;11.60;76.40;;;;;;5005359;28;86249;-39
2023/03/10 02:40:56;;;;;;;;;;;11.60;76.40;;;;;;5007076;28;88252;-39
2023/03/10 02:43:25;;;;;;;;;;;11.70;76.40;;;;;;5020043;28;88128;-40
2023/03/10 02:45:52;;;;;;;;;;;11.60;76.30;;;;;;5018126;28;88155;-40
2023/03/10 02:48:32;;;;;;;;;;;11.60;76.30;;;;;;5021727;28;89642;-39
2023/03/10 02:50:59;;;;;;;;;;;11.60;76.40;;;;;;5004646;28;87083;-40
2023/03/10 02:53:25;;;;;;;;;;;11.60;76.10;;;;;;5004930;28;87492;-39
2023/03/10 02:55:52;;;;;;;;;;;11.60;76.30;;;;;;5004144;28;89013;-39
2023/03/10 02:58:17;;;;;;;;;;;11.60;76.30;;;;;;5010499;28;87098;-39
2023/03/10 03:00:44;;;;;;;;;;;11.60;76.30;;;;;;5011769;28;89043;-40
2023/03/10 03:03:11;;;;;;;;;;;11.60;76.20;;;;;;5005212;28;88973;-39
2023/03/10 03:05:36;;;;;;;;;;;11.60;76.30;;;;;;5014008;28;87100;-40
2023/03/10 03:08:02;;;;;;;;;;;11.60;76.20;;;;;;5009662;28;88923;-40
2023/03/10 03:10:28;;;;;;;;;;;11.50;76.30;;;;;;5017269;28;90646;-40
2023/03/10 03:12:55;;;;;;;;;;;11.60;76.30;;;;;;5015473;28;89663;-39
2023/03/10 03:15:21;;;;;;;;;;;11.50;76.20;;;;;;5004294;28;89563;-39
2023/03/10 03:17:46;;;;;;;;;;;11.60;76.20;;;;;;5020204;28;87067;-39
2023/03/10 03:20:13;;;;;;;;;;;11.60;76.20;;;;;;5019799;28;88587;-39
2023/03/10 03:22:45;;;;;;;;;;;11.60;76.20;;;;;;5018430;28;89496;-39
2023/03/10 03:25:12;;;;;;;;;;;11.60;76.20;;;;;;5004533;28;87145;-39
2023/03/10 03:27:38;;;;;;;;;;;11.50;76.10;;;;;;5017776;28;89319;-39
2023/03/10 03:30:05;;;;;;;;;;;11.50;76.10;;;;;;5012759;28;89457;-40
2023/03/10 03:32:31;;;;;;;;;;;11.50;76.10;;;;;;5021014;28;87098;-39
2023/03/10 03:34:57;;;;;;;;;;;11.50;76.20;;;;;;5017871;28;90428;-40
2023/03/10 03:37:23;;;;;;;;;;;11.50;76.10;;;;;;5015237;28;87114;-39
2023/03/10 03:39:48;;;;;;;;;;;11.50;76.10;;;;;;5004140;28;88968;-40
2023/03/10 03:42:14;;;;;;;;;;;11.50;76.10;;;;;;5003678;28;89254;-39
2023/03/10 03:44:39;;;;;;;;;;;11.50;76.10;;;;;;5013824;28;87191;-40
2023/03/10 03:47:07;;;;;;;;;;;11.50;76.00;;;;;;5009980;28;88992;-39
2023/03/10 03:49:34;;;;;;;;;;;11.40;76.10;;;;;;5004044;28;89384;-39
2023/03/10 03:51:59;;;;;;;;;;;11.40;76.00;;;;;;5022475;28;87042;-39
2023/03/10 03:54:25;;;;;;;;;;;11.50;76.20;;;;;;5019548;28;89335;-39
2023/03/10 03:56:50;;;;;;;;;;;11.50;76.00;;;;;;5020463;28;87146;-39
2023/03/10 03:59:16;;;;;;;;;;;11.50;76.10;;;;;;5018749;28;88514;-39
2023/03/10 04:01:42;;;;;;;;;;;11.40;76.00;;;;;;5019625;28;89704;-39
2023/03/10 04:04:07;;;;;;;;;;;11.40;76.10;;;;;;5020139;28;87122;-39
2023/03/10 04:06:33;;;;;;;;;;;11.40;76.00;;;;;;5018718;28;88946;-39
2023/03/10 04:08:58;;;;;;;;;;;11.40;76.10;;;;;;5017762;28;89923;-39
2023/03/10 04:11:24;;;;;;;;;;;11.40;76.00;;;;;;5015410;28;88139;-39
2023/03/10 04:13:49;;;;;;;;;;;11.40;76.00;;;;;;5023550;28;89001;-39
2023/03/10 04:16:15;;;;;;;;;;;11.40;75.90;;;;;;5021245;28;86438;-39
2023/03/10 04:18:40;;;;;;;;;;;11.40;76.00;;;;;;5020906;28;88996;-39
2023/03/10 04:21:06;;;;;;;;;;;11.40;75.90;;;;;;5003926;28;89247;-40
2023/03/10 04:23:31;;;;;;;;;;;11.40;75.90;;;;;;5002744;28;88245;-39
2023/03/10 04:25:57;;;;;;;;;;;11.40;75.90;;;;;;5003265;28;90434;-39
2023/03/10 04:28:22;;;;;;;;;;;11.40;76.00;;;;;;5002245;28;89409;-39
2023/03/10 04:30:48;;;;;;;;;;;11.30;76.00;;;;;;5002963;28;87974;-39
2023/03/10 04:33:13;;;;;;;;;;;11.30;76.60;;;;;;5009816;28;88980;-39
2023/03/10 04:35:40;;;;;;;;;;;11.40;75.90;;;;;;5020639;28;89876;-39
2023/03/10 04:38:05;;;;;;;;;;;11.30;75.80;;;;;;5021011;28;88754;-39
2023/03/10 04:40:31;;;;;;;;;;;11.30;76.00;;;;;;5015901;28;87542;-39
2023/03/10 04:42:57;;;;;;;;;;;11.30;76.00;;;;;;5016574;28;87322;-39
2023/03/10 04:45:22;;;;;;;;;;;11.30;76.10;;;;;;5019118;28;88817;-39
2023/03/10 04:47:47;;;;;;;;;;;11.30;75.90;;;;;;5016891;28;88973;-40
2023/03/10 04:50:16;;;;;;;;;;;11.30;75.90;;;;;;5017174;28;87377;-39
2023/03/10 04:52:44;;;;;;;;;;;11.30;76.00;;;;;;5010150;28;88613;-39
2023/03/10 04:55:10;;;;;;;;;;;11.30;75.80;;;;;;5012856;28;88532;-39
2023/03/10 04:57:35;;;;;;;;;;;11.30;76.00;;;;;;5022199;28;87857;-39
2023/03/10 05:00:01;;;;;;;;;;;11.30;75.90;;;;;;5017260;28;87995;-40
2023/03/10 05:02:27;;;;;;;;;;;11.30;76.00;;;;;;5016379;28;87235;-40
2023/03/10 05:04:52;;;;;;;;;;;11.20;75.90;;;;;;5017799;28;88940;-39
2023/03/10 05:07:17;;;;;;;;;;;11.20;75.90;;;;;;5017827;28;89682;-39
2023/03/10 05:09:43;;;;;;;;;;;11.20;75.90;;;;;;5019624;28;87269;-39
2023/03/10 05:12:09;;;;;;;;;;;11.30;75.90;;;;;;5015989;28;88854;-39
2023/03/10 05:14:35;;;;;;;;;;;11.20;75.90;;;;;;5002200;28;89379;-39
2023/03/10 05:17:00;;;;;;;;;;;11.20;75.90;;;;;;5002470;28;87027;-39
2023/03/10 05:19:27;;;;;;;;;;;11.20;75.90;;;;;;5017800;28;90730;-40
2023/03/10 05:21:53;;;;;;;;;;;11.20;75.80;;;;;;5002562;28;87705;-40
2023/03/10 05:24:18;;;;;;;;;;;11.20;75.70;;;;;;5017784;28;87909;-40
2023/03/10 05:26:44;;;;;;;;;;;11.20;75.70;;;;;;5001629;28;89322;-39
2023/03/10 05:29:09;;;;;;;;;;;11.20;75.70;;;;;;5003147;28;86435;-39
2023/03/10 05:31:35;;;;;;;;;;;11.20;75.60;;;;;;5017443;28;88316;-39
2023/03/10 05:34:00;;;;;;;;;;;11.20;75.60;;;;;;5001931;28;89657;-39
2023/03/10 05:36:26;;;;;;;;;;;11.20;75.70;;;;;;5001755;28;88107;-39
2023/03/10 05:38:52;;;;;;;;;;;11.20;75.80;;;;;;5004717;28;89329;-39
2023/03/10 05:41:17;;;;;;;;;;;11.20;75.80;;;;;;5005828;28;87249;-39
2023/03/10 05:43:43;;;;;;;;;;;11.20;75.60;;;;;;5019510;28;89126;-39
2023/03/10 05:46:09;;;;;;;;;;;11.20;75.60;;;;;;5017400;28;89808;-40
2023/03/10 05:48:35;;;;;;;;;;;11.20;75.60;;;;;;5002022;28;88162;-39
2023/03/10 05:51:01;;;;;;;;;;;11.20;75.60;;;;;;5002082;28;89479;-39
2023/03/10 05:53:27;;;;;;;;;;;11.10;75.60;;;;;;5002215;28;87737;-39
2023/03/10 05:55:53;;;;;;;;;;;11.10;75.70;;;;;;5002100;28;86995;-39
2023/03/10 05:58:19;;;;;;;;;;;11.10;75.70;;;;;;5002644;28;87392;-39
2023/03/10 06:00:44;;;;;;;;;;;11.10;75.70;;;;;;5012704;28;90838;-38
2023/03/10 06:03:10;;;;;;;;;;;11.10;75.70;;;;;;5002426;28;88429;-39
2023/03/10 06:05:35;;;;;;;;;;;11.10;75.70;;;;;;5001759;28;87798;-39
2023/03/10 06:08:01;;;;;;;;;;;11.10;75.60;;;;;;5001952;28;87840;-38
2023/03/10 06:10:26;;;;;;;;;;;11.10;75.70;;;;;;5003998;28;88856;-39
2023/03/10 06:12:54;;;;;;;;;;;11.10;75.80;;;;;;5016000;28;88827;-39
2023/03/10 06:15:19;;;;;;;;;;;11.10;75.70;;;;;;5018926;28;87171;-39
2023/03/10 06:17:45;;;;;;;;;;;11.10;75.70;;;;;;5012855;28;87982;-40
2023/03/10 06:20:11;;;;;;;;;;;11.10;75.80;;;;;;5006676;28;89179;-39
2023/03/10 06:22:36;;;;;;;;;;;11.10;75.70;;;;;;5023287;28;87167;-39
2023/03/10 06:25:02;;;;;;;;;;;11.10;75.70;;;;;;5019276;28;90345;-39
2023/03/10 06:27:28;;;;;;;;;;;11.10;75.70;;;;;;5017794;28;87844;-39
2023/03/10 06:29:54;;;;;;;;;;;11.00;75.80;;;;;;5020942;28;89931;-39
2023/03/10 06:32:19;;;;;;;;;;;11.00;75.80;;;;;;5020373;28;89415;-39
2023/03/10 06:34:45;;;;;;;;;;;11.10;75.80;;;;;;5004724;28;87238;-39
2023/03/10 06:37:10;;;;;;;;;;;11.00;75.80;;;;;;5004836;28;89227;-39
2023/03/10 06:39:37;;;;;;;;;;;11.00;75.80;;;;;;5004486;28;89556;-39
2023/03/10 06:42:02;;;;;;;;;;;11.00;75.80;;;;;;5005438;28;86521;-39
2023/03/10 06:44:27;;;;;;;;;;;11.00;75.80;;;;;;5012731;28;88145;-39
2023/03/10 06:46:53;;;;;;;;;;;11.00;75.80;;;;;;5022371;28;87163;-39
2023/03/10 06:49:19;;;;;;;;;;;11.00;75.80;;;;;;5019908;28;88056;-40
2023/03/10 06:51:44;;;;;;;;;;;11.00;75.80;;;;;;5019097;28;89236;-39
2023/03/10 06:54:10;;;;;;;;;;;11.00;75.80;;;;;;5020457;28;87391;-40
2023/03/10 06:56:35;;;;;;;;;;;11.00;75.80;;;;;;5020187;28;88759;-44
2023/03/10 06:59:01;;;;;;;;;;;11.10;75.80;;;;;;5022052;28;89391;-40
2023/03/10 07:01:30;;;;;;;;;;;11.00;75.80;;;;;;5020549;28;87757;-39
2023/03/10 07:03:56;;;;;;;;;;;11.00;75.70;;;;;;5018855;28;89102;-39
2023/03/10 07:06:22;;;;;;;;;;;11.00;75.70;;;;;;5023114;28;88699;-39
2023/03/10 07:08:47;;;;;;;;;;;11.00;75.70;;;;;;5015339;28;87975;-39
2023/03/10 07:11:13;;;;;;;;;;;11.00;75.70;;;;;;5019791;28;89843;-39
2023/03/10 07:13:38;;;;;;;;;;;11.00;75.70;;;;;;5022141;28;88013;-39
2023/03/10 07:16:04;;;;;;;;;;;11.00;75.80;;;;;;5021679;28;90004;-39
2023/03/10 07:18:30;;;;;;;;;;;11.00;75.70;;;;;;5004273;28;89248;-39
2023/03/10 07:20:55;;;;;;;;;;;11.00;75.90;;;;;;5004162;28;87205;-39
2023/03/10 07:23:22;;;;;;;;;;;11.00;75.90;;;;;;5004110;28;88779;-40
2023/03/10 07:25:50;;;;;;;;;;;11.00;75.80;;;;;;5018284;28;89441;-39
2023/03/10 07:28:16;;;;;;;;;;;11.00;75.90;;;;;;5022094;28;87617;-39
2023/03/10 07:30:41;;;;;;;;;;;11.00;75.80;;;;;;5020591;28;89069;-39
2023/03/10 07:33:07;;;;;;;;;;;11.00;75.80;;;;;;5017822;28;87228;-39
2023/03/10 07:35:32;;;;;;;;;;;11.00;75.80;;;;;;5017818;28;87732;-39
2023/03/10 07:37:58;;;;;;;;;;;11.00;75.80;;;;;;5020238;28;90126;-39
2023/03/10 07:40:23;;;;;;;;;;;11.00;75.70;;;;;;5012429;28;87877;-39
2023/03/10 07:42:53;;;;;;;;;;;11.00;75.70;;;;;;5008525;28;88561;-39
2023/03/10 07:45:19;;;;;;;;;;;11.00;75.70;;;;;;5020142;28;89707;-39
2023/03/10 07:47:45;;;;;;;;;;;11.00;75.60;;;;;;5021656;28;87167;-39
2023/03/10 07:50:10;;;;;;;;;;;11.00;75.70;;;;;;5015114;28;89189;-39
2023/03/10 07:52:36;;;;;;;;;;;11.00;75.90;;;;;;5015728;28;87294;-40
2023/03/10 07:55:01;;;;;;;;;;;11.00;75.80;;;;;;5015354;28;88909;-39
2023/03/10 07:57:27;;;;;;;;;;;11.00;75.90;;;;;;5003565;28;89141;-39
2023/03/10 07:59:53;;;;;;;;;;;11.00;75.80;;;;;;5003923;28;87195;-40
2023/03/10 08:02:18;;;;;;;;;;;11.00;75.80;;;;;;5014974;28;88976;-39
2023/03/10 08:04:44;;;;;;;;;;;11.00;75.80;;;;;;5003727;28;87714;-39
2023/03/10 08:07:09;;;;;;;;;;;11.00;75.80;;;;;;5003560;28;87290;-40
2023/03/10 08:09:35;;;;;;;;;;;11.00;75.70;;;;;;5015007;28;89012;-39
2023/03/10 08:12:01;;;;;;;;;;;11.00;75.70;;;;;;5011715;28;87047;-39
2023/03/10 08:14:27;;;;;;;;;;;11.00;75.80;;;;;;5020462;28;88635;-39
2023/03/10 08:16:55;;;;;;;;;;;11.00;75.70;;;;;;5018613;28;89718;-39
2023/03/10 08:19:21;;;;;;;;;;;11.00;75.70;;;;;;5019707;28;87158;-39
2023/03/10 08:21:47;;;;;;;;;;;11.10;75.80;;;;;;5019335;28;88006;-39
2023/03/10 08:24:12;;;;;;;;;;;11.10;75.80;;;;;;5017827;28;88550;-39
2023/03/10 08:26:38;;;;;;;;;;;11.10;75.80;;;;;;5018200;28;88700;-39
2023/03/10 08:29:04;;;;;;;;;;;11.10;75.70;;;;;;5004847;28;89868;-39
2023/03/10 08:31:29;;;;;;;;;;;11.10;75.80;;;;;;5009010;28;89190;-40
2023/03/10 08:33:55;;;;;;;;;;;11.10;75.80;;;;;;5008709;28;88781;-39
2023/03/10 08:36:22;;;;;;;;;;;11.10;75.80;;;;;;5002479;28;89494;-40
2023/03/10 08:38:48;;;;;;;;;;;11.10;75.80;;;;;;5016793;28;87458;-39
2023/03/10 08:41:17;;;;;;;;;;;11.10;75.80;;;;;;5003318;28;88830;-39
2023/03/10 08:43:42;;;;;;;;;;;11.10;75.80;;;;;;5011574;28;87233;-39
2023/03/10 08:46:11;;;;;;;;;;;11.10;75.90;;;;;;5009256;28;88110;-39
2023/03/10 08:48:37;;;;;;;;;;;11.10;75.80;;;;;;5003727;28;89069;-39
2023/03/10 08:51:03;;;;;;;;;;;11.10;75.60;;;;;;5004786;28;90280;-40
2023/03/10 08:53:28;;;;;;;;;;;11.10;75.60;;;;;;5015422;28;87269;-40
2023/03/10 08:55:53;;;;;;;;;;;11.20;75.50;;;;;;5008724;28;89658;-40
2023/03/10 08:58:19;;;;;;;;;;;11.20;75.50;;;;;;5006219;28;88040;-39
2023/03/10 09:00:45;;;;;;;;;;;11.20;75.50;;;;;;5006584;28;87721;-39
2023/03/10 09:03:10;;;;;;;;;;;11.20;75.40;;;;;;5002699;28;89277;-39
2023/03/10 09:05:36;;;;;;;;;;;11.20;75.40;;;;;;5006080;28;87235;-39
2023/03/10 09:08:02;;;;;;;;;;;11.20;75.20;;;;;;5004778;28;87595;-39
2023/03/10 09:10:28;;;;;;;;;;;11.20;75.30;;;;;;5002399;28;89443;-39
2023/03/10 09:12:54;;;;;;;;;;;11.20;75.20;;;;;;5010420;28;88081;-39
2023/03/10 09:15:19;;;;;;;;;;;11.20;75.10;;;;;;5007964;28;89218;-39
2023/03/10 09:17:46;;;;;;;;;;;11.30;75.00;;;;;;5009489;28;87192;-39
2023/03/10 09:20:11;;;;;;;;;;;11.20;75.30;;;;;;5008773;28;88988;-40
2023/03/10 09:22:37;;;;;;;;;;;11.20;75.30;;;;;;5002568;28;89231;-39
2023/03/10 09:25:03;;;;;;;;;;;11.30;75.20;;;;;;5007289;28;87881;-39
2023/03/10 09:27:28;;;;;;;;;;;11.20;75.10;;;;;;5009995;28;89246;-39
2023/03/10 09:29:54;;;;;;;;;;;11.30;75.20;;;;;;5008833;28;90427;-39
2023/03/10 09:32:19;;;;;;;;;;;11.30;75.40;;;;;;5009131;28;86452;-39
2023/03/10 09:34:44;;;;;;;;;;;11.30;75.30;;;;;;5003736;28;89048;-39
2023/03/10 09:37:10;;;;;;;;;;;11.30;75.50;;;;;;5014630;28;89598;-39
2023/03/10 09:39:36;;;;;;;;;;;11.30;75.40;;;;;;5005438;28;89320;-39
2023/03/10 09:42:01;;;;;;;;;;;11.30;75.30;;;;;;5005197;28;89296;-39
2023/03/10 09:44:29;;;;;;;;;;;11.30;75.40;;;;;;5018076;28;87199;-40
2023/03/10 09:46:55;;;;;;;;;;;11.30;75.40;;;;;;5002533;28;89074;-40
2023/03/10 09:49:29;;;;;;;;;;;11.30;75.30;;;;;;5005038;28;88905;-39
2023/03/10 09:51:55;;;;;;;;;;;11.30;75.50;;;;;;5005782;28;87228;-39
2023/03/10 09:54:26;;;;;;;;;;;11.30;75.70;;;;;;5005941;28;87468;-40
2023/03/10 09:56:53;;;;;;;;;;;11.30;75.60;;;;;;5008867;28;88360;-39
2023/03/10 09:59:27;;;;;;;;;;;11.30;75.70;;;;;;5017187;28;87088;-39
2023/03/10 10:01:52;;;;;;;;;;;11.30;76.50;;;;;;5018430;28;89299;-40
2023/03/10 10:04:21;;;;;;;;;;;11.30;75.70;;;;;;5004908;28;88897;-39
2023/03/10 10:06:47;;;;;;;;;;;11.30;75.90;;;;;;5014581;28;89618;-39
2023/03/10 10:09:40;;;;;;;;;;;11.30;75.90;;;;;;5005119;28;89280;-39
2023/03/10 10:12:12;;;;;;;;;;;11.30;75.90;;;;;;5017289;28;87879;-39
2023/03/10 10:14:38;;;;;;;;;;;11.30;76.10;;;;;;5005023;28;90467;-39
2023/03/10 10:17:22;;;;;;;;;;;11.30;76.10;;;;;;5004504;28;88161;-39
2023/03/10 10:19:48;;;;;;;;;;;11.30;76.10;;;;;;5008010;28;87268;-39
2023/03/10 10:22:27;;;;;;;;;;;11.30;76.20;;;;;;5005614;28;88702;-40
2023/03/10 10:24:59;;;;;;;;;;;11.30;76.20;;;;;;5005138;28;87128;-39
2023/03/10 10:27:25;;;;;;;;;;;11.30;76.30;;;;;;5004437;28;89081;-39
2023/03/10 10:29:50;;;;;;;;;;;11.30;76.30;;;;;;5003680;28;89628;-40
2023/03/10 10:32:17;;;;;;;;;;;11.30;76.30;;;;;;5005464;28;87808;-40
2023/03/10 10:34:43;;;;;;;;;;;11.30;76.30;;;;;;5016205;28;88939;-39
2023/03/10 10:37:21;;;;;;;;;;;11.30;76.90;;;;;;5015673;28;89293;-39
2023/03/10 10:39:48;;;;;;;;;;;11.30;76.40;;;;;;5019667;28;88042;-39
2023/03/10 10:42:26;;;;;;;;;;;11.30;76.30;;;;;;5017099;28;89768;-39
2023/03/10 10:44:56;;;;;;;;;;;11.30;76.30;;;;;;5004768;28;87238;-40
2023/03/10 10:47:27;;;;;;;;;;;11.30;76.20;;;;;;5021153;28;88884;-39
2023/03/10 10:49:53;;;;;;;;;;;11.30;76.20;;;;;;5010520;28;89554;-40
2023/03/10 10:52:21;;;;;;;;;;;11.30;76.10;;;;;;5018916;28;88134;-40
2023/03/10 10:54:56;;;;;;;;;;;11.30;76.10;;;;;;5018799;28;88628;-39
2023/03/10 10:57:29;;;;;;;;;;;11.30;76.10;;;;;;5012512;28;90014;-39
2023/03/10 10:59:54;;;;;;;;;;;11.30;76.10;;;;;;5019110;28;87184;-39
2023/03/10 11:02:19;;;;;;;;;;;11.30;76.10;;;;;;5004749;28;89121;-39
2023/03/10 11:04:45;;;;;;;;;;;11.30;76.20;;;;;;5007175;28;89411;-39
2023/03/10 11:07:11;;;;;;;;;;;11.30;76.10;;;;;;5004895;28;88660;-39
2023/03/10 11:09:37;;;;;;;;;;;11.30;76.10;;;;;;5009257;28;90669;-39
2023/03/10 11:12:21;;;;;;;;;;;11.30;76.10;;;;;;5019255;28;86348;-39
2023/03/10 11:15:01;;;;;;;;;;;11.30;76.10;;;;;;5004496;28;88049;-39
2023/03/10 11:17:30;;;;;;;;;;;11.30;76.10;;;;;;5004564;28;89423;-39
2023/03/10 11:20:00;;;;;;;;;;;11.30;76.20;;;;;;5003947;28;88739;-39
2023/03/10 11:22:26;;;;;;;;;;;11.30;76.10;;;;;;5005027;28;89467;-39
2023/03/10 11:24:57;;;;;;;;;;;11.30;76.20;;;;;;5014918;28;89808;-39
2023/03/10 11:27:41;;;;;;;;;;;11.40;76.20;;;;;;5021554;28;87825;-40
2023/03/10 11:30:18;;;;;;;;;;;11.30;76.10;;;;;;5011818;28;87213;-37
2023/03/10 11:32:59;;;;;;;;;;;11.30;76.10;;;;;;5004696;28;87934;-39
2023/03/10 11:35:33;;;;;;;;;;;11.30;76.20;;;;;;5019037;28;88220;-39
2023/03/10 11:38:10;;;;;;;;;;;11.30;76.20;;;;;;5014765;28;87987;-39
2023/03/10 11:40:53;;;;;;;;;;;11.30;76.20;;;;;;5004366;28;87797;-39
2023/03/10 11:43:37;;;;;;;;;;;11.30;76.40;;;;;;5013761;28;88755;-39
2023/03/10 11:46:06;;;;;;;;;;;11.30;76.40;;;;;;5002990;28;90360;-40
2023/03/10 11:48:40;;;;;;;;;;;11.40;76.50;;;;;;5003997;28;88042;-39
2023/03/10 11:51:09;;;;;;;;;;;11.40;76.60;;;;;;5014320;28;89028;-40
2023/03/10 11:53:43;;;;;;;;;;;11.40;76.60;;;;;;5002819;28;87825;-40
2023/03/10 11:56:10;;;;;;;;;;;11.40;76.60;;;;;;5014526;28;87793;-39
2023/03/10 11:58:48;;;;;;;;;;;11.40;76.60;;;;;;5010619;28;90138;-40
2023/03/10 12:01:20;;;;;;;;;;;11.40;76.50;;;;;;5003657;28;87212;-40
2023/03/10 12:03:47;;;;;;;;;;;11.40;76.50;;;;;;5004548;28;88696;-39
2023/03/10 12:06:25;;;;;;;;;;;11.40;76.50;;;;;;5011099;28;89413;-39
2023/03/10 12:08:52;;;;;;;;;;;11.40;76.50;;;;;;5004163;28;87181;-39
2023/03/10 12:11:20;;;;;;;;;;;11.40;76.60;;;;;;5005334;28;88793;-39
2023/03/10 12:13:47;;;;;;;;;;;11.50;76.70;;;;;;5005594;28;87386;-39
2023/03/10 12:16:16;;;;;;;;;;;11.50;76.60;;;;;;5013556;28;87858;-39
2023/03/10 12:18:41;;;;;;;;;;;11.50;76.70;;;;;;5012255;28;89347;-39
2023/03/10 12:21:19;;;;;;;;;;;11.50;76.70;;;;;;5003221;28;87257;-39
2023/03/10 12:23:52;;;;;;;;;;;11.50;76.80;;;;;;5014516;28;87425;-39
2023/03/10 12:26:41;;;;;;;;;;;11.50;76.80;;;;;;5013382;28;87221;-39
2023/03/10 12:29:18;;;;;;;;;;;11.50;77.60;;;;;;5000142;28;86557;-39
2023/03/10 12:31:45;;;;;;;;;;;11.60;77.00;;;;;;5004089;28;88149;-39
2023/03/10 12:34:13;;;;;;;;;;;11.60;77.10;;;;;;5013652;28;89191;-39
2023/03/10 12:36:41;;;;;;;;;;;11.60;77.00;;;;;;5010425;28;88684;-39
2023/03/10 12:39:26;;;;;;;;;;;11.60;76.90;;;;;;5003400;28;88302;-39
2023/03/10 12:42:01;;;;;;;;;;;11.60;76.90;;;;;;5008397;28;87265;-39
2023/03/10 12:44:27;;;;;;;;;;;11.60;76.90;;;;;;5005434;28;87972;-40
2023/03/10 12:47:07;;;;;;;;;;;11.70;76.90;;;;;;5005167;28;89670;-39
2023/03/10 12:49:39;;;;;;;;;;;11.70;76.90;;;;;;5003405;28;87110;-39
2023/03/10 12:52:23;;;;;;;;;;;11.70;76.90;;;;;;5009669;28;88838;-40
2023/03/10 12:55:13;;;;;;;;;;;11.70;76.90;;;;;;5007178;28;88621;-39
2023/03/10 12:58:02;;;;;;;;;;;11.70;76.90;;;;;;5005788;28;87852;-40
2023/03/10 13:00:43;;;;;;;;;;;11.70;77.00;;;;;;5002278;28;90085;-39
2023/03/10 13:03:08;;;;;;;;;;;11.70;77.00;;;;;;5007978;28;89026;-40
2023/03/10 13:05:36;;;;;;;;;;;11.70;77.10;;;;;;5011756;28;89913;-39
2023/03/10 13:08:04;;;;;;;;;;;11.70;77.10;;;;;;5003487;28;89332;-39
2023/03/10 13:10:30;;;;;;;;;;;11.70;77.10;;;;;;5014705;28;87289;-39
2023/03/10 13:12:59;;;;;;;;;;;11.60;77.20;;;;;;5016462;28;89116;-39
2023/03/10 13:15:27;;;;;;;;;;;11.70;77.20;;;;;;5005731;28;89792;-39
2023/03/10 13:17:55;;;;;;;;;;;11.70;77.10;;;;;;5004487;28;87778;-39
2023/03/10 13:20:21;;;;;;;;;;;11.70;77.10;;;;;;5008271;28;88931;-39
2023/03/10 13:22:57;;;;;;;;;;;11.80;77.00;;;;;;5008609;28;87074;-39
2023/03/10 13:25:23;;;;;;;;;;;11.80;77.00;;;;;;5015191;28;88375;-39
2023/03/10 13:27:48;;;;;;;;;;;11.80;77.00;;;;;;5004603;28;90314;-39
2023/03/10 13:30:14;;;;;;;;;;;11.80;77.00;;;;;;5016351;28;87862;-39
2023/03/10 13:32:40;;;;;;;;;;;11.80;77.10;;;;;;5006655;28;87423;-39
2023/03/10 13:35:21;;;;;;;;;;;11.80;77.10;;;;;;5005541;28;89424;-39
2023/03/10 13:38:10;;;;;;;;;;;11.80;77.00;;;;;;5006205;28;87222;-39
2023/03/10 13:40:37;;;;;;;;;;;11.80;76.90;;;;;;5007300;28;89476;-38
2023/03/10 13:43:04;;;;;;;;;;;11.80;76.90;;;;;;5011292;28;89538;-38
2023/03/10 13:45:33;;;;;;;;;;;11.80;76.90;;;;;;5009062;28;89078;-39
2023/03/10 13:48:04;;;;;;;;;;;11.90;76.90;;;;;;5005273;28;90133;-39
2023/03/10 13:50:30;;;;;;;;;;;11.90;76.80;;;;;;5006249;28;87825;-38
2023/03/10 13:52:58;;;;;;;;;;;11.90;76.80;;;;;;5007171;28;88423;-38
2023/03/10 13:55:24;;;;;;;;;;;11.90;76.80;;;;;;5005872;28;89536;-38
2023/03/10 13:57:50;;;;;;;;;;;11.90;76.80;;;;;;5010880;28;87950;-38
2023/03/10 14:00:17;;;;;;;;;;;11.90;76.70;;;;;;5006335;28;89023;-39
2023/03/10 14:02:45;;;;;;;;;;;11.90;76.70;;;;;;5006423;28;89533;-38
2023/03/10 14:05:29;;;;;;;;;;;11.90;76.80;;;;;;5011538;28;87117;-38
2023/03/10 14:07:58;;;;;;;;;;;12.00;76.80;;;;;;5012205;28;89373;-39
2023/03/10 14:10:24;;;;;;;;;;;11.90;76.80;;;;;;5006929;28;86421;-37
2023/03/10 14:12:51;;;;;;;;;;;11.90;76.80;;;;;;5010464;28;88331;-38
2023/03/10 14:15:21;;;;;;;;;;;11.90;76.80;;;;;;5007077;28;89638;-38
2023/03/10 14:17:47;;;;;;;;;;;12.00;76.90;;;;;;5005461;28;89784;-38
2023/03/10 14:20:29;;;;;;;;;;;11.90;76.90;;;;;;5006172;28;88500;-38